createdAt,value
2023-01-30T00:01:31.808Z,99575.00
2023-01-30T00:03:05.087Z,99571.00
2023-01-30T00:04:38.214Z,99579.00
2023-01-30T00:06:11.272Z,99573.00
2023-01-30T00:07:44.813Z,99571.00
2023-01-30T00:09:18.164Z,99554.00
2023-01-30T00:10:50.543Z,99551.00
2023-01-30T00:12:25.402Z,99533.00
2023-01-30T00:13:58.925Z,99530.00
2023-01-30T00:15:31.134Z,99531.00
2023-01-30T00:17:04.883Z,99524.00
2023-01-30T00:18:38.938Z,99527.00
2023-01-30T00:20:15.680Z,99524.00
2023-01-30T00:21:49.082Z,99532.00
2023-01-30T00:23:21.493Z,99531.00
2023-01-30T00:24:54.655Z,99553.00
2023-01-30T00:26:28.088Z,99549.00
2023-01-30T00:28:03.358Z,99547.00
2023-01-30T00:29:36.479Z,99548.00
2023-01-30T00:31:10.817Z,99544.00
2023-01-30T00:32:43.213Z,99538.00
2023-01-30T00:34:16.468Z,99521.00
2023-01-30T00:35:51.905Z,99522.00
2023-01-30T00:37:25.170Z,99529.00
2023-01-30T00:38:59.119Z,99527.00
2023-01-30T00:40:32.343Z,99520.00
2023-01-30T00:42:23.831Z,99525.00
2023-01-30T00:44:16.092Z,99538.00
2023-01-30T00:46:09.324Z,99533.00
2023-01-30T00:47:42.659Z,99523.00
2023-01-30T00:49:16.515Z,99517.00
2023-01-30T00:50:49.672Z,99514.00
2023-01-30T00:52:22.801Z,99506.00
2023-01-30T00:53:57.879Z,99509.00
2023-01-30T00:55:31.163Z,99507.00
2023-01-30T00:57:04.829Z,99509.00
2023-01-30T00:58:38.123Z,99495.00
2023-01-30T01:00:17.938Z,99495.00
2023-01-30T01:01:50.191Z,99488.00
2023-01-30T01:03:24.136Z,99474.00
2023-01-30T01:04:57.260Z,99473.00
2023-01-30T01:06:30.969Z,99476.00
2023-01-30T01:08:03.888Z,99485.00
2023-01-30T01:09:37.166Z,99481.00
2023-01-30T01:11:11.154Z,99480.00
2023-01-30T01:12:45.189Z,99488.00
2023-01-30T01:14:21.270Z,99488.00
2023-01-30T01:15:56.008Z,99485.00
2023-01-30T01:17:29.077Z,99484.00
2023-01-30T01:19:02.740Z,99486.00
2023-01-30T01:20:35.199Z,99481.00
2023-01-30T01:22:09.360Z,99488.00
2023-01-30T01:23:42.864Z,99477.00
2023-01-30T01:25:16.570Z,99476.00
2023-01-30T01:26:49.933Z,99479.00
2023-01-30T01:28:24.144Z,99457.00
2023-01-30T01:29:57.466Z,99456.00
2023-01-30T01:31:32.470Z,99444.00
2023-01-30T01:33:05.657Z,99433.00
2023-01-30T01:34:41.524Z,99443.00
2023-01-30T01:36:29.318Z,99426.00
2023-01-30T01:38:07.917Z,99430.00
2023-01-30T01:39:58.668Z,99429.00
2023-01-30T01:41:33.329Z,99429.00
2023-01-30T01:43:19.833Z,99420.00
2023-01-30T01:45:14.102Z,99417.00
2023-01-30T01:46:53.562Z,99415.00
2023-01-30T01:48:31.181Z,99434.00
2023-01-30T01:50:07.483Z,99419.00
2023-01-30T01:51:49.788Z,99412.00
2023-01-30T01:53:27.507Z,99410.00
2023-01-30T01:55:05.128Z,99413.00
2023-01-30T01:56:44.865Z,99425.00
2023-01-30T01:58:24.226Z,99410.00
2023-01-30T02:02:01.971Z,99405.00
2023-01-30T02:03:43.481Z,99405.00
2023-01-30T02:05:19.424Z,99406.00
2023-01-30T02:06:52.906Z,99401.00
2023-01-30T02:08:33.360Z,99392.00
2023-01-30T02:10:11.831Z,99389.00
2023-01-30T02:11:55.499Z,99388.00
2023-01-30T02:13:29.005Z,99384.00
2023-01-30T02:15:03.782Z,99388.00
2023-01-30T02:16:38.782Z,99398.00
2023-01-30T02:18:14.704Z,99383.00
2023-01-30T02:19:55.569Z,99381.00
2023-01-30T02:22:04.062Z,99378.00
2023-01-30T02:24:17.808Z,99378.00
2023-01-30T02:26:22.171Z,99370.00
2023-01-30T02:28:29.503Z,99374.00
2023-01-30T02:30:53.516Z,99377.00
2023-01-30T02:32:35.958Z,99361.00
2023-01-30T02:34:37.119Z,99359.00
2023-01-30T02:36:20.065Z,99359.00
2023-01-30T02:38:08.296Z,99356.00
2023-01-30T02:39:55.316Z,99336.00
2023-01-30T02:41:38.142Z,99337.00
2023-01-30T02:43:24.227Z,99333.00
2023-01-30T02:45:08.626Z,99348.00
2023-01-30T02:46:54.688Z,99331.00
2023-01-30T02:48:37.616Z,99329.00
2023-01-30T02:50:19.504Z,99344.00
2023-01-30T02:51:54.855Z,99314.00
2023-01-30T02:53:32.628Z,99312.00
2023-01-30T02:55:18.900Z,99294.00
2023-01-30T02:56:55.427Z,99306.00
2023-01-30T02:58:35.731Z,99295.00
2023-01-30T03:00:11.381Z,99304.00
2023-01-30T03:02:28.554Z,99292.00
2023-01-30T03:04:31.648Z,99296.00
2023-01-30T03:06:34.422Z,99311.00
2023-01-30T03:08:25.091Z,99305.00
2023-01-30T03:10:08.323Z,99299.00
2023-01-30T03:11:58.734Z,99305.00
2023-01-30T03:13:49.251Z,99306.00
2023-01-30T03:15:31.284Z,99291.00
2023-01-30T03:17:08.985Z,99306.00
2023-01-30T03:18:42.981Z,99289.00
2023-01-30T03:20:19.886Z,99287.00
2023-01-30T03:21:53.097Z,99289.00
2023-01-30T03:23:26.257Z,99281.00
2023-01-30T03:24:59.706Z,99281.00
2023-01-30T03:26:38.767Z,99275.00
2023-01-30T03:28:15.762Z,99287.00
2023-01-30T03:29:50.071Z,99284.00
2023-01-30T03:31:22.457Z,99264.00
2023-01-30T03:32:57.385Z,99285.00
2023-01-30T03:34:30.857Z,99260.00
2023-01-30T03:36:04.487Z,99267.00
2023-01-30T03:37:37.602Z,99260.00
2023-01-30T03:39:10.895Z,99263.00
2023-01-30T03:40:43.215Z,99261.00
2023-01-30T03:42:16.499Z,99261.00
2023-01-30T03:43:48.683Z,99261.00
2023-01-30T03:45:22.624Z,99271.00
2023-01-30T03:46:55.740Z,99256.00
2023-01-30T03:48:31.023Z,99267.00
2023-01-30T03:50:03.717Z,99258.00
2023-01-30T03:51:37.961Z,99251.00
2023-01-30T03:53:11.387Z,99254.00
2023-01-30T03:54:45.034Z,99248.00
2023-01-30T03:56:18.471Z,99251.00
2023-01-30T03:57:57.676Z,99256.00
2023-01-30T03:59:33.670Z,99237.00
2023-01-30T04:01:12.581Z,99246.00
2023-01-30T04:02:47.354Z,99259.00
2023-01-30T04:04:24.474Z,99240.00
2023-01-30T04:05:56.913Z,99233.00
2023-01-30T04:07:30.785Z,99234.00
2023-01-30T04:09:03.091Z,99216.00
2023-01-30T04:10:43.784Z,99221.00
2023-01-30T04:12:17.728Z,99228.00
2023-01-30T04:13:58.353Z,99215.00
2023-01-30T04:15:31.564Z,99207.00
2023-01-30T04:17:21.792Z,99206.00
2023-01-30T04:19:14.939Z,99212.00
2023-01-30T04:20:49.888Z,99220.00
2023-01-30T04:22:28.264Z,99222.00
2023-01-30T04:24:01.493Z,99204.00
2023-01-30T04:25:33.908Z,99203.00
2023-01-30T04:27:07.368Z,99216.00
2023-01-30T04:28:45.678Z,99210.00
2023-01-30T04:30:19.818Z,99205.00
2023-01-30T04:31:55.863Z,99217.00
2023-01-30T04:33:32.433Z,99194.00
2023-01-30T04:35:06.615Z,99215.00
2023-01-30T04:36:41.703Z,99208.00
2023-01-30T04:38:14.548Z,99221.00
2023-01-30T04:39:47.841Z,99204.00
2023-01-30T04:41:21.382Z,99204.00
2023-01-30T04:42:54.859Z,99201.00
2023-01-30T04:44:47.983Z,99204.00
2023-01-30T04:46:25.388Z,99198.00
2023-01-30T04:48:00.680Z,99198.00
2023-01-30T04:49:33.805Z,99202.00
2023-01-30T04:51:09.362Z,99195.00
2023-01-30T04:52:48.787Z,99193.00
2023-01-30T04:54:21.613Z,99208.00
2023-01-30T04:55:55.936Z,99200.00
2023-01-30T04:57:29.225Z,99203.00
2023-01-30T04:59:02.492Z,99213.00
2023-01-30T05:00:41.061Z,99205.00
2023-01-30T05:02:14.792Z,99191.00
2023-01-30T05:03:51.023Z,99206.00
2023-01-30T05:05:25.305Z,99185.00
2023-01-30T05:06:58.469Z,99182.00
2023-01-30T05:08:34.178Z,99179.00
2023-01-30T05:10:08.974Z,99192.00
2023-01-30T05:11:42.140Z,99191.00
2023-01-30T05:13:14.287Z,99183.00
2023-01-30T05:14:47.520Z,99172.00
2023-01-30T05:16:22.296Z,99180.00
2023-01-30T05:17:55.412Z,99174.00
2023-01-30T05:19:28.629Z,99189.00
2023-01-30T05:21:10.379Z,99188.00
2023-01-30T05:22:43.494Z,99195.00
2023-01-30T05:24:18.223Z,99174.00
2023-01-30T05:25:51.376Z,99176.00
2023-01-30T05:27:24.843Z,99177.00
2023-01-30T05:28:59.653Z,99189.00
2023-01-30T05:30:32.931Z,99180.00
2023-01-30T05:32:07.313Z,99181.00
2023-01-30T05:33:41.034Z,99186.00
2023-01-30T05:35:14.218Z,99184.00
2023-01-30T05:36:47.554Z,99177.00
2023-01-30T05:38:20.948Z,99171.00
2023-01-30T05:39:55.409Z,99168.00
2023-01-30T05:41:28.647Z,99161.00
2023-01-30T05:43:01.805Z,99159.00
2023-01-30T05:44:34.922Z,99160.00
2023-01-30T05:46:10.582Z,99161.00
2023-01-30T05:47:43.694Z,99153.00
2023-01-30T05:49:17.320Z,99141.00
2023-01-30T05:50:52.240Z,99151.00
2023-01-30T05:52:25.455Z,99165.00
2023-01-30T05:53:58.749Z,99147.00
2023-01-30T05:55:33.163Z,99158.00
2023-01-30T05:57:06.289Z,99144.00
2023-01-30T05:58:40.236Z,99151.00
2023-01-30T06:00:15.295Z,99152.00
2023-01-30T06:01:48.296Z,99158.00
2023-01-30T06:03:22.256Z,99152.00
2023-01-30T06:04:55.392Z,99158.00
2023-01-30T06:06:28.904Z,99151.00
2023-01-30T06:08:02.164Z,99156.00
2023-01-30T06:09:35.607Z,99164.00
2023-01-30T06:11:13.730Z,99157.00
2023-01-30T06:12:46.871Z,99140.00
2023-01-30T06:14:20.114Z,99145.00
2023-01-30T06:15:54.341Z,99157.00
2023-01-30T06:17:29.767Z,99147.00
2023-01-30T06:19:03.123Z,99158.00
2023-01-30T06:20:36.395Z,99152.00
2023-01-30T06:22:09.512Z,99161.00
2023-01-30T06:23:42.921Z,99171.00
2023-01-30T06:25:16.704Z,99165.00
2023-01-30T06:26:51.634Z,99162.00
2023-01-30T06:28:26.809Z,99171.00
2023-01-30T06:29:59.753Z,99162.00
2023-01-30T06:31:33.004Z,99171.00
2023-01-30T06:33:06.528Z,99165.00
2023-01-30T06:34:39.888Z,99177.00
2023-01-30T06:36:13.047Z,99178.00
2023-01-30T06:37:46.966Z,99185.00
2023-01-30T06:39:20.245Z,99181.00
2023-01-30T06:40:53.626Z,99197.00
2023-01-30T06:42:28.046Z,99178.00
2023-01-30T06:44:01.177Z,99178.00
2023-01-30T06:45:34.482Z,99184.00
2023-01-30T06:47:07.648Z,99181.00
2023-01-30T06:48:40.990Z,99194.00
2023-01-30T06:50:14.762Z,99181.00
2023-01-30T06:51:47.859Z,99189.00
2023-01-30T06:53:22.184Z,99191.00
2023-01-30T06:54:55.444Z,99198.00
2023-01-30T06:56:28.531Z,99188.00
2023-01-30T06:58:09.023Z,99206.00
2023-01-30T06:59:42.068Z,99195.00
2023-01-30T07:01:15.531Z,99201.00
2023-01-30T07:02:48.906Z,99195.00
2023-01-30T07:04:22.045Z,99187.00
2023-01-30T07:05:55.376Z,99199.00
2023-01-30T07:07:28.651Z,99198.00
2023-01-30T07:09:01.894Z,99197.00
2023-01-30T07:10:35.995Z,99199.00
2023-01-30T07:12:09.135Z,99190.00
2023-01-30T07:13:43.603Z,99190.00
2023-01-30T07:15:17.469Z,99195.00
2023-01-30T07:16:50.905Z,99193.00
2023-01-30T07:18:24.213Z,99206.00
2023-01-30T07:19:56.468Z,99198.00
2023-01-30T07:21:29.626Z,99196.00
2023-01-30T07:23:03.385Z,99196.00
2023-01-30T07:24:36.555Z,99183.00
2023-01-30T07:26:09.744Z,99188.00
2023-01-30T07:27:43.023Z,99191.00
2023-01-30T07:29:17.745Z,99193.00
2023-01-30T07:30:52.718Z,99190.00
2023-01-30T07:32:26.150Z,99194.00
2023-01-30T07:33:59.284Z,99193.00
2023-01-30T07:35:37.305Z,99186.00
2023-01-30T07:37:10.438Z,99184.00
2023-01-30T07:38:43.633Z,99185.00
2023-01-30T07:40:18.361Z,99194.00
2023-01-30T07:41:51.608Z,99213.00
2023-01-30T07:43:25.341Z,99211.00
2023-01-30T07:44:59.851Z,99192.00
2023-01-30T07:46:35.060Z,99194.00
2023-01-30T07:48:09.727Z,99192.00
2023-01-30T07:49:43.047Z,99205.00
2023-01-30T07:51:16.726Z,99213.00
2023-01-30T07:52:49.869Z,99215.00
2023-01-30T07:54:23.557Z,99209.00
2023-01-30T07:55:56.739Z,99197.00
2023-01-30T07:57:30.913Z,99205.00
2023-01-30T07:59:05.674Z,99209.00
2023-01-30T08:00:40.438Z,99217.00
2023-01-30T08:02:13.566Z,99206.00
2023-01-30T08:03:49.032Z,99215.00
2023-01-30T08:05:22.290Z,99224.00
2023-01-30T08:06:55.383Z,99217.00
2023-01-30T08:08:29.436Z,99231.00
2023-01-30T08:10:02.987Z,99221.00
2023-01-30T08:11:36.417Z,99223.00
2023-01-30T08:13:09.856Z,99215.00
2023-01-30T08:14:42.952Z,99214.00
2023-01-30T08:16:17.476Z,99229.00
2023-01-30T08:17:56.076Z,99221.00
2023-01-30T08:19:29.475Z,99222.00
2023-01-30T08:21:05.740Z,99229.00
2023-01-30T08:22:39.170Z,99227.00
2023-01-30T08:24:12.462Z,99236.00
2023-01-30T08:25:45.810Z,99243.00
2023-01-30T08:27:19.046Z,99248.00
2023-01-30T08:28:52.194Z,99243.00
2023-01-30T08:30:25.670Z,99252.00
2023-01-30T08:32:01.634Z,99248.00
2023-01-30T08:33:35.088Z,99250.00
2023-01-30T08:35:10.401Z,99254.00
2023-01-30T08:36:46.540Z,99254.00
2023-01-30T08:38:19.886Z,99254.00
2023-01-30T08:39:53.149Z,99258.00
2023-01-30T08:41:28.222Z,99261.00
2023-01-30T08:43:01.374Z,99248.00
2023-01-30T08:44:34.477Z,99256.00
2023-01-30T08:46:08.073Z,99261.00
2023-01-30T08:47:42.622Z,99262.00
2023-01-30T08:49:16.345Z,99266.00
2023-01-30T08:50:52.762Z,99253.00
2023-01-30T08:52:25.961Z,99250.00
2023-01-30T08:53:59.503Z,99254.00
2023-01-30T08:55:32.610Z,99245.00
2023-01-30T08:57:05.889Z,99246.00
2023-01-30T08:58:39.523Z,99239.00
2023-01-30T09:00:14.035Z,99225.00
2023-01-30T09:01:47.139Z,99206.00
2023-01-30T09:03:21.643Z,99221.00
2023-01-30T09:04:54.958Z,99221.00
2023-01-30T09:06:28.124Z,99212.00
2023-01-30T09:08:01.379Z,99215.00
2023-01-30T09:09:34.854Z,99224.00
2023-01-30T09:11:08.598Z,99231.00
2023-01-30T09:12:41.813Z,99241.00
2023-01-30T09:14:16.335Z,99233.00
2023-01-30T09:15:49.445Z,99246.00
2023-01-30T09:17:22.858Z,99237.00
2023-01-30T09:18:57.980Z,99239.00
2023-01-30T09:20:31.166Z,99242.00
2023-01-30T09:22:04.833Z,99242.00
2023-01-30T09:23:38.457Z,99266.00
2023-01-30T09:25:11.699Z,99241.00
2023-01-30T09:26:45.201Z,99259.00
2023-01-30T09:28:18.393Z,99257.00
2023-01-30T09:29:51.602Z,99253.00
2023-01-30T09:31:25.118Z,99247.00
2023-01-30T09:32:58.399Z,99250.00
2023-01-30T09:34:32.948Z,99252.00
2023-01-30T09:36:07.475Z,99259.00
2023-01-30T09:37:49.578Z,99267.00
2023-01-30T09:39:22.715Z,99275.00
2023-01-30T09:41:23.740Z,99266.00
2023-01-30T09:43:21.853Z,99265.00
2023-01-30T09:45:17.285Z,99277.00
2023-01-30T09:47:03.760Z,99263.00
2023-01-30T09:48:44.430Z,99267.00
2023-01-30T09:50:49.015Z,99273.00
2023-01-30T09:52:33.879Z,99274.00
2023-01-30T09:54:22.094Z,99275.00
2023-01-30T09:55:58.990Z,99274.00
2023-01-30T09:57:32.086Z,99284.00
2023-01-30T09:59:06.802Z,99280.00
2023-01-30T10:00:42.582Z,99267.00
2023-01-30T10:02:47.579Z,99288.00
2023-01-30T10:04:32.092Z,99286.00
2023-01-30T10:06:13.845Z,99290.00
2023-01-30T10:08:20.701Z,99296.00
2023-01-30T10:10:05.584Z,99313.00
2023-01-30T10:11:55.491Z,99315.00
2023-01-30T10:14:07.137Z,99321.00
2023-01-30T10:15:55.376Z,99334.00
2023-01-30T10:17:42.688Z,99328.00
2023-01-30T10:19:58.432Z,99322.00
2023-01-30T10:21:47.548Z,99307.00
2023-01-30T10:23:52.070Z,99304.00
2023-01-30T10:25:32.428Z,99305.00
2023-01-30T10:27:12.933Z,99304.00
2023-01-30T10:29:06.608Z,99298.00
2023-01-30T10:30:41.321Z,99304.00
2023-01-30T10:32:20.310Z,99300.00
2023-01-30T10:34:01.658Z,99298.00
2023-01-30T10:35:39.445Z,99304.00
2023-01-30T10:37:23.321Z,99307.00
2023-01-30T10:39:03.410Z,99300.00
2023-01-30T10:40:43.908Z,99307.00
2023-01-30T10:42:26.581Z,99308.00
2023-01-30T10:44:06.729Z,99316.00
2023-01-30T10:45:53.497Z,99291.00
2023-01-30T10:47:50.788Z,99313.00
2023-01-30T10:49:37.675Z,99299.00
2023-01-30T10:51:22.718Z,99306.00
2023-01-30T10:53:08.064Z,99306.00
2023-01-30T10:54:50.944Z,99298.00
2023-01-30T10:56:34.710Z,99289.00
2023-01-30T10:58:23.472Z,99288.00
2023-01-30T11:00:04.586Z,99289.00
2023-01-30T11:01:44.904Z,99297.00
2023-01-30T11:03:29.161Z,99289.00
2023-01-30T11:05:11.821Z,99308.00
2023-01-30T11:06:45.257Z,99310.00
2023-01-30T11:08:26.638Z,99304.00
2023-01-30T11:10:01.276Z,99291.00
2023-01-30T11:11:51.286Z,99299.00
2023-01-30T11:13:30.585Z,99307.00
2023-01-30T11:15:04.069Z,99306.00
2023-01-30T11:16:46.361Z,99306.00
2023-01-30T11:19:14.711Z,99299.00
2023-01-30T11:20:21.224Z,99298.00
2023-01-30T11:22:02.300Z,99306.00
2023-01-30T11:23:42.692Z,99306.00
2023-01-30T11:25:20.652Z,99282.00
2023-01-30T11:26:54.040Z,99297.00
2023-01-30T11:28:28.752Z,99305.00
2023-01-30T11:30:15.075Z,99317.00
2023-01-30T11:31:52.615Z,99309.00
2023-01-30T11:33:35.364Z,99323.00
2023-01-30T11:35:31.037Z,99290.00
2023-01-30T11:37:22.951Z,99314.00
2023-01-30T11:39:02.595Z,99308.00
2023-01-30T11:40:40.738Z,99305.00
2023-01-30T11:42:13.896Z,99306.00
2023-01-30T11:43:48.230Z,99309.00
2023-01-30T11:45:26.731Z,99310.00
2023-01-30T11:47:03.032Z,99315.00
2023-01-30T11:49:04.384Z,99315.00
2023-01-30T11:50:45.809Z,99306.00
2023-01-30T11:52:39.820Z,99308.00
2023-01-30T11:54:19.263Z,99297.00
2023-01-30T11:56:02.584Z,99298.00
2023-01-30T11:57:46.216Z,99306.00
2023-01-30T11:59:29.332Z,99290.00
2023-01-30T12:01:04.216Z,99306.00
2023-01-30T12:02:39.550Z,99295.00
2023-01-30T12:04:14.749Z,99291.00
2023-01-30T12:05:48.981Z,99296.00
2023-01-30T12:07:25.611Z,99291.00
2023-01-30T12:08:59.806Z,99290.00
2023-01-30T12:10:34.298Z,99304.00
2023-01-30T12:12:33.677Z,99283.00
2023-01-30T12:14:24.270Z,99293.00
2023-01-30T12:16:19.950Z,99296.00
2023-01-30T12:18:04.798Z,99295.00
2023-01-30T12:19:53.116Z,99296.00
2023-01-30T12:21:43.176Z,99282.00
2023-01-30T12:23:24.967Z,99305.00
2023-01-30T12:25:03.007Z,99313.00
2023-01-30T12:26:46.587Z,99337.00
2023-01-30T12:28:31.008Z,99346.00
2023-01-30T12:30:21.419Z,99326.00
2023-01-30T12:33:40.504Z,99339.00
2023-01-30T12:35:18.231Z,99343.00
2023-01-30T12:37:04.998Z,99333.00
2023-01-30T12:38:57.971Z,99313.00
2023-01-30T12:40:47.333Z,99323.00
2023-01-30T12:42:53.099Z,99315.00
2023-01-30T12:44:48.139Z,99330.00
2023-01-30T12:46:42.918Z,99323.00
2023-01-30T12:48:48.863Z,99321.00
2023-01-30T12:50:47.905Z,99324.00
2023-01-30T12:52:51.223Z,99314.00
2023-01-30T12:54:41.869Z,99332.00
2023-01-30T12:56:49.837Z,99329.00
2023-01-30T12:58:33.448Z,99333.00
2023-01-30T13:00:31.337Z,99335.00
2023-01-30T13:02:45.633Z,99338.00
2023-01-30T13:05:01.674Z,99355.00
2023-01-30T13:06:59.116Z,99351.00
2023-01-30T13:09:01.507Z,99345.00
2023-01-30T13:10:44.397Z,99349.00
2023-01-30T13:12:31.974Z,99345.00
2023-01-30T13:14:14.558Z,99351.00
2023-01-30T13:16:01.060Z,99345.00
2023-01-30T13:17:49.876Z,99341.00
2023-01-30T13:19:40.697Z,99349.00
2023-01-30T13:21:20.342Z,99348.00
2023-01-30T13:23:05.308Z,99342.00
2023-01-30T13:24:53.223Z,99344.00
2023-01-30T13:26:34.208Z,99338.00
2023-01-30T13:28:17.235Z,99358.00
2023-01-30T13:29:54.813Z,99351.00
2023-01-30T13:31:36.686Z,99364.00
2023-01-30T13:33:14.998Z,99373.00
2023-01-30T13:34:49.892Z,99361.00
2023-01-30T13:36:30.095Z,99369.00
2023-01-30T13:38:07.243Z,99375.00
2023-01-30T13:39:46.968Z,99368.00
2023-01-30T13:41:23.359Z,99374.00
2023-01-30T13:43:04.127Z,99379.00
2023-01-30T13:44:44.019Z,99367.00
2023-01-30T13:46:25.669Z,99376.00
2023-01-30T13:48:18.869Z,99371.00
2023-01-30T13:50:16.432Z,99380.00
2023-01-30T13:51:55.831Z,99374.00
2023-01-30T13:53:35.626Z,99374.00
2023-01-30T13:55:27.212Z,99376.00
2023-01-30T13:57:13.036Z,99366.00
2023-01-30T13:58:54.804Z,99375.00
2023-01-30T14:00:33.504Z,99380.00
2023-01-30T14:02:23.198Z,99386.00
2023-01-30T14:03:56.488Z,99391.00
2023-01-30T14:06:15.534Z,99397.00
2023-01-30T14:07:48.792Z,99389.00
2023-01-30T14:09:33.405Z,99385.00
2023-01-30T14:11:34.061Z,99389.00
2023-01-30T14:13:07.830Z,99385.00
2023-01-30T14:14:43.314Z,99395.00
2023-01-30T14:16:16.515Z,99403.00
2023-01-30T14:18:07.044Z,99405.00
2023-01-30T14:20:02.598Z,99409.00
2023-01-30T14:21:38.381Z,99414.00
2023-01-30T14:23:23.044Z,99410.00
2023-01-30T14:25:46.512Z,99413.00
2023-01-30T14:27:31.973Z,99413.00
2023-01-30T14:29:05.335Z,99421.00
2023-01-30T14:30:48.476Z,99416.00
2023-01-30T14:32:58.411Z,99411.00
2023-01-30T14:35:22.898Z,99423.00
2023-01-30T14:36:56.099Z,99424.00
2023-01-30T14:38:31.756Z,99428.00
2023-01-30T14:40:32.946Z,99440.00
2023-01-30T14:42:25.547Z,99430.00
2023-01-30T14:43:58.682Z,99428.00
2023-01-30T14:45:49.531Z,99439.00
2023-01-30T14:47:35.453Z,99435.00
2023-01-30T14:49:35.994Z,99438.00
2023-01-30T14:51:22.824Z,99437.00
2023-01-30T14:52:57.962Z,99447.00
2023-01-30T14:54:51.520Z,99449.00
2023-01-30T14:56:41.269Z,99449.00
2023-01-30T14:58:19.812Z,99459.00
2023-01-30T15:00:15.082Z,99458.00
2023-01-30T15:02:02.337Z,99452.00
2023-01-30T15:03:39.396Z,99472.00
2023-01-30T15:05:16.284Z,99462.00
2023-01-30T15:06:51.474Z,99467.00
2023-01-30T15:08:28.194Z,99470.00
2023-01-30T15:10:07.504Z,99471.00
2023-01-30T15:11:45.520Z,99468.00
2023-01-30T15:13:50.331Z,99474.00
2023-01-30T15:15:34.527Z,99477.00
2023-01-30T15:17:24.486Z,99483.00
2023-01-30T15:19:19.721Z,99488.00
2023-01-30T15:21:22.173Z,99496.00
2023-01-30T15:23:29.369Z,99504.00
2023-01-30T15:25:23.431Z,99504.00
2023-01-30T15:27:08.325Z,99512.00
2023-01-30T15:28:54.315Z,99522.00
2023-01-30T15:30:48.237Z,99522.00
2023-01-30T15:32:24.242Z,99519.00
2023-01-30T15:33:57.837Z,99527.00
2023-01-30T15:35:31.416Z,99537.00
2023-01-30T15:37:04.566Z,99547.00
2023-01-30T15:38:39.265Z,99533.00
2023-01-30T15:40:26.072Z,99551.00
2023-01-30T15:42:09.043Z,99542.00
2023-01-30T15:44:06.051Z,99566.00
2023-01-30T15:45:52.444Z,99552.00
2023-01-30T15:47:49.295Z,99566.00
2023-01-30T15:49:45.590Z,99561.00
2023-01-30T15:51:27.053Z,99587.00
2023-01-30T15:53:00.597Z,99591.00
2023-01-30T15:54:35.378Z,99580.00
2023-01-30T15:56:12.133Z,99581.00
2023-01-30T15:57:52.837Z,99582.00
2023-01-30T15:59:34.541Z,99584.00
2023-01-30T16:01:09.370Z,99592.00
2023-01-30T16:02:44.151Z,99589.00
2023-01-30T16:04:29.513Z,99594.00
2023-01-30T16:06:03.162Z,99592.00
2023-01-30T16:07:36.456Z,99592.00
2023-01-30T16:09:22.229Z,99589.00
2023-01-30T16:10:57.664Z,99589.00
2023-01-30T16:12:31.996Z,99593.00
2023-01-30T16:14:06.564Z,99608.00
2023-01-30T16:15:47.482Z,99611.00
2023-01-30T16:17:21.318Z,99613.00
2023-01-30T16:18:58.034Z,99619.00
2023-01-30T16:20:36.536Z,99620.00
2023-01-30T16:22:19.295Z,99625.00
2023-01-30T16:24:01.325Z,99626.00
2023-01-30T16:25:34.634Z,99637.00
2023-01-30T16:27:19.299Z,99636.00
2023-01-30T16:29:01.800Z,99636.00
2023-01-30T16:30:35.346Z,99642.00
2023-01-30T16:32:15.336Z,99646.00
2023-01-30T16:33:51.989Z,99640.00
2023-01-30T16:35:34.187Z,99654.00
2023-01-30T16:37:26.301Z,99662.00
2023-01-30T16:39:00.113Z,99659.00
2023-01-30T16:40:46.014Z,99668.00
2023-01-30T16:42:26.504Z,99670.00
2023-01-30T16:44:17.430Z,99671.00
2023-01-30T16:46:49.405Z,99670.00
2023-01-30T16:48:34.330Z,99685.00
2023-01-30T16:50:21.909Z,99689.00
2023-01-30T16:52:05.552Z,99686.00
2023-01-30T16:53:49.162Z,99696.00
2023-01-30T16:55:26.218Z,99701.00
2023-01-30T16:57:02.701Z,99684.00
2023-01-30T16:58:39.267Z,99697.00
2023-01-30T17:00:25.377Z,99698.00
2023-01-30T17:02:00.705Z,99692.00
2023-01-30T17:03:38.034Z,99694.00
2023-01-30T17:05:20.652Z,99698.00
2023-01-30T17:06:59.971Z,99709.00
2023-01-30T17:08:49.722Z,99704.00
2023-01-30T17:11:03.365Z,99709.00
2023-01-30T17:12:39.144Z,99713.00
2023-01-30T17:14:22.187Z,99719.00
2023-01-30T17:15:55.429Z,99722.00
2023-01-30T17:17:28.641Z,99725.00
2023-01-30T17:19:02.743Z,99713.00
2023-01-30T17:20:47.337Z,99713.00
2023-01-30T17:22:24.496Z,99730.00
2023-01-30T17:24:01.987Z,99731.00
2023-01-30T17:25:41.644Z,99724.00
2023-01-30T17:27:17.180Z,99734.00
2023-01-30T17:28:50.498Z,99733.00
2023-01-30T17:30:25.031Z,99742.00
2023-01-30T17:31:59.408Z,99720.00
2023-01-30T17:33:32.739Z,99737.00
2023-01-30T17:35:07.402Z,99747.00
2023-01-30T17:36:41.403Z,99737.00
2023-01-30T17:38:14.580Z,99741.00
2023-01-30T17:39:48.254Z,99743.00
2023-01-30T17:41:24.629Z,99746.00
2023-01-30T17:42:57.750Z,99755.00
2023-01-30T17:44:30.959Z,99759.00
2023-01-30T17:46:05.619Z,99755.00
2023-01-30T17:47:38.952Z,99772.00
2023-01-30T17:49:16.723Z,99759.00
2023-01-30T17:50:50.894Z,99760.00
2023-01-30T17:52:24.049Z,99764.00
2023-01-30T17:53:57.309Z,99781.00
2023-01-30T17:55:30.662Z,99775.00
2023-01-30T17:57:09.565Z,99774.00
2023-01-30T17:58:42.943Z,99767.00
2023-01-30T18:00:20.423Z,99776.00
2023-01-30T18:01:55.600Z,99778.00
2023-01-30T18:03:28.723Z,99784.00
2023-01-30T18:05:01.862Z,99788.00
2023-01-30T18:06:36.065Z,99794.00
2023-01-30T18:08:09.550Z,99788.00
2023-01-30T18:09:42.951Z,99799.00
2023-01-30T18:11:17.251Z,99808.00
2023-01-30T18:12:50.622Z,99794.00
2023-01-30T18:14:23.901Z,99794.00
2023-01-30T18:16:00.932Z,99804.00
2023-01-30T18:17:39.261Z,99801.00
2023-01-30T18:19:17.644Z,99809.00
2023-01-30T18:20:50.791Z,99806.00
2023-01-30T18:22:23.886Z,99808.00
2023-01-30T18:23:57.302Z,99805.00
2023-01-30T18:25:30.500Z,99799.00
2023-01-30T18:27:03.745Z,99804.00
2023-01-30T18:28:40.210Z,99813.00
2023-01-30T18:30:17.690Z,99819.00
2023-01-30T18:31:51.331Z,99823.00
2023-01-30T18:33:26.227Z,99823.00
2023-01-30T18:34:59.517Z,99803.00
2023-01-30T18:36:35.928Z,99813.00
2023-01-30T18:38:09.228Z,99822.00
2023-01-30T18:39:42.390Z,99818.00
2023-01-30T18:41:18.901Z,99825.00
2023-01-30T18:42:52.312Z,99826.00
2023-01-30T18:44:26.427Z,99808.00
2023-01-30T18:46:05.366Z,99823.00
2023-01-30T18:47:38.606Z,99825.00
2023-01-30T18:49:13.120Z,99822.00
2023-01-30T18:50:46.254Z,99837.00
2023-01-30T18:52:19.727Z,99834.00
2023-01-30T18:53:55.152Z,99843.00
2023-01-30T18:55:28.260Z,99825.00
2023-01-30T18:57:01.460Z,99834.00
2023-01-30T18:58:35.301Z,99837.00
2023-01-30T19:00:10.485Z,99832.00
2023-01-30T19:01:43.595Z,99833.00
2023-01-30T19:03:17.898Z,99839.00
2023-01-30T19:04:52.492Z,99844.00
2023-01-30T19:06:27.455Z,99840.00
2023-01-30T19:08:00.537Z,99842.00
2023-01-30T19:09:33.971Z,99843.00
2023-01-30T19:11:23.026Z,99846.00
2023-01-30T19:13:14.099Z,99840.00
2023-01-30T19:14:47.320Z,99848.00
2023-01-30T19:16:20.956Z,99851.00
2023-01-30T19:17:56.122Z,99844.00
2023-01-30T19:19:29.361Z,99851.00
2023-01-30T19:21:04.136Z,99859.00
2023-01-30T19:22:37.703Z,99860.00
2023-01-30T19:24:15.303Z,99858.00
2023-01-30T19:25:55.565Z,99864.00
2023-01-30T19:27:28.938Z,99866.00
2023-01-30T19:29:02.379Z,99858.00
2023-01-30T19:30:37.204Z,99865.00
2023-01-30T19:32:10.509Z,99869.00